Elk City, OK

6:46 PM CST on February 26, 2015 (GMT -0600)
Clinton-Sherman | Change Station
CLOSE
Current Station
Airport
Location: Clinton-Sherman,
Elevation: 1923 ft
Nearby Weather Stations
Active Advisory: Winter Weather Advisory

Elev 1923 ft 35.34 °N, 99.20 °W | Updated 53 minutes ago

Partly Cloudy
Partly Cloudy
27 °F
Feels Like 14 °F
N
17
Wind Variable Wind from NNE

Today
High -- | Low -- °F
--% Chance of Precip.
Yesterday
High -- | Low -- °F
Precip. -- in
7:11 AM 6:30 PM
Waxing Gibbous, 63% visible
Pressure 30.43 in
Visibility 10.0 miles
Clouds Scattered Clouds 10000 ft
Windchill 14 °F
Dew Point 1 °F
Humidity 33%
Rainfall 0.00 in
Snow Depth Not available.
UV 0 out of 12
Pollen 5.90 out of 12
Air Quality Not available.
Flu Activity Not available.
METAR KCSM 262353Z 02015KT 10SM SCT100 M03/M17 A3037 RMK AO2 SLP305 T10281172 11006 21033 53005

More Conditions Fewer Conditions

Pressure 30.43 in
Visibility 10.0 miles
Clouds Scattered Clouds 10000 ft
Windchill 14 °F
Dew Point 1 °F
Humidity 33%
Rainfall 0.00 in
Snow Depth Not available.
UV 0 out of 12
Pollen 5.90 out of 12
Air Quality Not available.
Flu Activity Not available.
METAR KCSM 262353Z 02015KT 10SM SCT100 M03/M17 A3037 RMK AO2 SLP305 T10281172 11006 21033 53005

More Conditions Fewer Conditions

10-Day Weather Forecast

Almanac

Astronomy

Feb. 26, 2015 Rise Set
Actual Time
Civil Twilight
Nautical Twilight
Astronomical Twilight
Moon
Length of Visible Light
Length of Day
Tomorrow will be .
, % of the Moon is Illuminated

Today's Extremes

State Highs State Lows

Community

WunderPhotos

Upload Photos

1,800,548 photos uploaded!

WunderBlogs® & News

Nearby

Air Quality

  Air Quality AQ Index Pollutant
Not available.

Snow Depth

Station Depth Elevation

Earthquake Activity

City Distance Mag. Time & Date
Minimum magnitude displayed is 2.5.

Coastal Water Temperatures

Place Temperature

Nearby Weather Stations

Winter Weather Advisory
Statement as of 3:00 PM CST on February 26, 2015

... Winter Weather Advisory in effect from 6 am to 6 PM CST
Friday...

The National Weather Service in Norman has issued a Winter
Weather Advisory for accumulating snow... which is in effect from
6 am to 6 PM CST Friday.

* Timing: light to moderate snow will develop around 6 am and move
into portions of western Oklahoma and western North Texas
through the morning and into the evening.

* Main impact: 1 to 3 inches of snow.

* Other impacts: slick and hazardous roads can be expected...
impacting the Friday morning commute.

Precautionary/preparedness actions...

Be careful if you have to travel. Even small amounts of ice and
snow can make roads and sidewalks slick and dangerous.